Latest Weather Observations for Emerald

IDQ60801

Issued at 8:32 pm EST Thursday 19 January 2017 (issued every 30 minutes, with the page automatically refreshed every 10 minutes)

About weather observations | Map of weather stations | Latest weather observations for QLD | Other Formats
Station Details ID: 035264 Name: EMERALD AIRPORT Lat: -23.57 Lon: 148.18 Height: 189.4 m
Data from the previous 72 hours. | See also: Recent months at Emerald
Date/Time
EST
Temp
°C
App
Temp
°C
Dew
Point
°C
Rel
Hum
%
Delta-T
°C
Wind Press
QNH
hPa
Press
MSL
hPa
Rain since
9am
mm
Dir  Spd
km/h
Gust
km/h
Spd
kts
Gust
kts
19/08:30pm 32.7 32.0 14.3 32 11.4 NNE 11 13 6 7 1006.9 - 0.0
19/08:00pm 33.9 32.8 14.4 31 12.1 N 13 15 7 8 1006.8 - 0.0
19/07:30pm 34.6 33.6 14.5 30 12.5 NNE 13 20 7 11 1006.4 - 0.0
19/07:00pm 35.6 33.9 14.8 28 13.0 NNE 17 22 9 12 1006.2 - 0.0
19/06:30pm 36.1 35.0 15.2 28 13.2 NE 15 20 8 11 1006.0 - 0.0
19/06:00pm 37.2 35.6 15.1 27 14.0 NE 17 20 9 11 1005.7 1004.4 0.0
19/05:30pm 38.0 37.2 15.2 26 14.5 ENE 13 20 7 11 1005.4 - 0.0
19/05:00pm 39.2 37.7 16.2 26 14.9 ENE 19 24 10 13 1005.3 - 0.0
19/04:30pm 38.9 39.2 15.9 25 14.8 NE 9 15 5 8 1005.3 - 0.0
19/04:00pm 38.7 38.5 15.7 25 14.7 E 11 22 6 12 1005.5 - 0.0
19/03:30pm 39.1 38.6 14.8 23 15.4 W 11 15 6 8 1005.9 - 0.0
19/03:00pm 38.9 39.0 16.5 26 14.5 NE 11 20 6 11 1006.3 1005.1 0.0
19/02:30pm 38.8 38.6 15.8 25 14.8 ESE 11 20 6 11 1007.0 - 0.0
19/02:00pm 37.9 37.7 16.8 29 13.7 E 13 20 7 11 1007.7 - 0.0
19/01:30pm 37.3 37.6 17.8 31 12.8 SSW 13 20 7 11 1008.4 - 0.0
19/01:00pm 36.7 37.3 16.8 30 12.9 ESE 9 15 5 8 1008.9 - 0.0
19/12:30pm 36.3 36.4 17.4 32 12.3 N 13 26 7 14 1009.3 - 0.0
19/12:00pm 35.9 37.0 18.0 34 11.7 SSE 9 13 5 7 1009.9 1008.6 0.0
19/11:30am 35.1 35.1 18.2 36 11.1 W 15 20 8 11 1010.4 - 0.0
19/11:00am 35.3 35.4 18.4 37 11.1 W 15 24 8 13 1010.7 - 0.0
19/10:30am 34.2 35.9 20.2 43 9.4 NNW 11 19 6 10 1011.1 - 0.0
19/10:00am 33.2 34.9 21.7 51 7.9 W 15 22 8 12 1011.3 - 0.0
19/09:30am 31.9 34.1 22.6 58 6.4 WNW 15 20 8 11 1011.5 - 0.0
19/09:00am 30.8 32.9 22.4 61 5.8 NW 15 24 8 13 1011.6 1010.4 0.0
19/08:30am 30.3 33.3 22.7 64 5.2 NW 11 19 6 10 1011.6 - 0.0
19/08:00am 29.2 31.9 22.9 69 4.3 NNW 13 19 7 10 1012.0 - 0.0
19/07:30am 27.6 29.2 22.1 72 3.7 NNW 17 24 9 13 1011.9 - 0.0
19/07:00am 26.2 29.3 21.4 75 3.2 N 7 9 4 5 1011.6 - 0.0
19/06:30am 25.2 28.5 21.9 82 2.2 N 7 9 4 5 1011.3 - 0.0
19/06:00am 23.6 26.5 21.7 89 1.3 N 9 13 5 7 1011.0 1009.7 0.0
19/05:30am 23.2 26.4 21.3 89 1.3 E 6 7 3 4 1011.1 - 0.0
19/05:00am 23.4 26.2 20.9 86 1.6 ENE 7 9 4 5 1010.7 - 0.0
19/04:30am 23.5 26.1 20.4 83 2.0 E 7 9 4 5 1010.4 - 0.0
19/04:00am 24.0 26.9 19.9 78 2.7 SSW 4 13 2 7 1010.2 - 0.0
19/03:30am 24.5 25.3 19.8 75 3.1 NNE 15 20 8 11 1009.6 - 0.0
19/03:00am 24.8 26.5 19.4 72 3.5 NNE 9 11 5 6 1010.1 1008.8 0.0
19/02:30am 24.9 26.8 18.6 68 4.0 NE 6 7 3 4 1010.1 - 0.0
19/02:00am 25.5 27.1 18.2 64 4.6 NNE 7 9 4 5 1010.1 - 0.0
19/01:30am 25.6 26.5 17.5 61 5.1 NNE 9 11 5 6 1010.4 - 0.0
19/01:00am 26.6 27.4 17.4 57 5.8 N 9 11 5 6 1010.6 - 0.0
19/12:30am 26.6 27.2 15.9 51 6.6 NE 7 9 4 5 1010.8 - 0.0
19/12:00am 27.5 26.9 14.5 45 7.9 NNE 11 13 6 7 1010.9 1009.6 0.0
 
Date/Time
EST
Temp
°C
App
Temp
°C
Dew
Point
°C
Rel
Hum
%
Delta-T
°C
Wind Press
QNH
hPa
Press
MSL
hPa
Rain since
9am
mm
Dir  Spd
km/h
Gust
km/h
Spd
kts
Gust
kts
18/11:30pm 28.5 28.5 15.1 44 8.2 NNE 9 11 5 6 1011.1 - 0.0
18/11:00pm 29.2 29.8 15.7 44 8.4 NE 7 9 4 5 1011.3 - 0.0
18/10:30pm 28.2 28.9 16.1 47 7.5 NE 7 7 4 4 1011.4 - 0.0
18/10:00pm 29.4 30.2 15.9 44 8.4 NE 6 7 3 4 1011.4 - 0.0
18/09:30pm 29.3 31.5 16.5 46 8.0 CALM 0 0 0 0 1011.4 - 0.0
18/09:00pm 30.5 31.1 15.4 40 9.4 NNE 6 11 3 6 1011.0 1009.7 0.0
18/08:30pm 30.2 30.7 15.5 41 9.1 WSW 7 17 4 9 1010.7 - 0.0
18/08:00pm 31.7 31.8 15.6 37 10.1 SW 9 11 5 6 1010.4 - 0.0
18/07:30pm 32.2 32.2 15.2 35 10.6 SSW 9 11 5 6 1010.3 - 0.0
18/07:00pm 33.7 33.0 14.2 30 12.0 SSW 11 15 6 8 1010.1 - 0.0
18/06:30pm 35.1 33.3 13.3 27 13.3 SSW 15 19 8 10 1010.0 - 0.0
18/06:00pm 36.0 34.1 12.9 25 14.1 SW 15 19 8 10 1009.9 1008.6 0.0
18/05:30pm 36.2 34.9 13.6 25 13.9 SW 13 17 7 9 1009.8 - 0.0
18/05:00pm 36.2 35.7 15.9 30 12.9 WSW 13 19 7 10 1009.9 - 0.0
18/04:30pm 36.4 35.4 16.5 30 12.8 SW 17 24 9 13 1010.1 - 0.0
18/04:00pm 35.8 34.8 16.5 31 12.4 SSW 17 24 9 13 1010.2 - 0.0
18/03:30pm 35.8 35.7 17.0 32 12.2 S 13 22 7 12 1010.5 - 0.0
18/03:00pm 36.2 37.0 17.4 33 12.2 NE 9 13 5 7 1010.9 - 0.0
18/02:30pm 35.4 36.1 17.1 33 11.8 SSE 9 19 5 10 1011.4 - 0.0
18/02:00pm 34.9 36.2 17.6 35 11.2 N 7 15 4 8 1011.9 - 0.0
18/01:30pm 34.7 34.8 17.4 35 11.2 NE 13 20 7 11 1012.4 - 0.0
18/01:00pm 34.3 33.8 17.9 37 10.7 NE 17 22 9 12 1012.9 - 0.0
18/12:30pm 33.2 33.8 17.8 40 10.0 E 11 19 6 10 1013.4 - 0.0
18/12:29pm 33.2 33.5 17.8 40 10.0 E 13 19 7 10 1013.4 - 0.0
18/12:04pm 32.8 32.7 17.8 40 9.7 E 15 20 8 11 1013.8 - 0.0
18/12:00pm 32.8 33.2 18.2 42 9.5 ESE 13 19 7 10 1013.9 1012.6 0.0
18/11:30am 32.2 33.9 18.4 44 9.0 NNW 7 13 4 7 1014.4 - 0.0
18/11:00am 31.2 32.0 18.2 46 8.4 NNW 11 17 6 9 1014.9 - 0.0
18/10:30am 30.4 32.1 18.5 49 7.7 WSW 7 15 4 8 1015.3 - 0.0
18/10:00am 30.0 31.7 19.4 53 7.0 NNW 9 19 5 10 1015.6 - 0.0
18/09:30am 29.0 29.8 18.1 51 7.0 NE 11 15 6 8 1015.9 - 0.0
18/09:00am 27.8 30.2 20.1 63 5.1 N 7 11 4 6 1016.1 1014.9 0.0
18/08:30am 26.5 28.6 20.1 68 4.2 N 9 15 5 8 1016.3 - 0.0
18/08:00am 26.1 29.1 21.3 75 3.2 NNE 7 13 4 7 1016.3 - 0.0
18/07:44am 25.4 27.9 21.7 80 2.5 NNE 11 15 6 8 1016.3 - 0.0
18/07:30am 25.2 27.6 21.5 80 2.5 N 11 19 6 10 1016.1 - 0.0
18/07:17am 25.1 28.0 21.8 82 2.2 NE 9 13 5 7 1016.1 - 0.0
18/07:00am 24.7 28.1 22.0 85 1.8 ENE 7 11 4 6 1016.0 - 0.0
18/06:30am 23.5 26.8 21.9 91 1.1 NE 7 9 4 5 1015.8 - 0.0
18/06:00am 22.8 26.0 21.6 93 0.8 NE 7 9 4 5 1015.4 1014.1 0.0
18/05:30am 23.0 26.3 21.4 91 1.1 NNE 6 7 3 4 1015.1 - 0.0
18/05:00am 23.1 26.8 21.4 90 1.1 NNE 4 7 2 4 1014.5 - 0.0
18/04:30am 22.9 26.7 21.0 89 1.3 NNE 2 6 1 3 1014.2 - 0.0
18/04:00am 23.2 26.2 21.3 89 1.3 N 7 9 4 5 1013.9 - 0.0
18/03:30am 23.2 26.1 21.1 88 1.4 NNE 7 9 4 5 1013.5 - 0.0
18/03:00am 23.1 25.4 20.6 86 1.6 NE 9 11 5 6 1013.6 1012.4 0.0
18/02:30am 24.0 26.4 20.9 83 2.0 NNE 9 11 5 6 1013.8 - 0.0
18/02:00am 24.4 26.5 20.9 81 2.3 N 11 15 6 8 1013.9 - 0.0
18/01:30am 24.7 26.8 21.0 80 2.4 NNE 11 15 6 8 1014.2 - 0.0
18/01:00am 25.2 27.0 21.1 78 2.7 NNE 13 17 7 9 1014.3 - 0.0
18/12:30am 25.9 27.7 21.1 75 3.2 NNE 13 17 7 9 1014.7 - 0.0
18/12:00am 26.5 27.9 21.0 72 3.7 NE 15 22 8 12 1014.6 1013.3 0.0
 
Date/Time
EST
Temp
°C
App
Temp
°C
Dew
Point
°C
Rel
Hum
%
Delta-T
°C
Wind Press
QNH
hPa
Press
MSL
hPa
Rain since
9am
mm
Dir  Spd
km/h
Gust
km/h
Spd
kts
Gust
kts
17/11:30pm 27.0 27.6 21.1 70 3.9 NE 19 28 10 15 1014.7 - 0.0
17/11:00pm 27.6 28.1 21.2 68 4.3 NE 20 28 11 15 1014.6 - 0.0
17/10:30pm 28.4 28.5 21.2 65 4.8 NE 22 32 12 17 1014.7 - 0.0
17/10:00pm 28.5 29.5 19.4 57 6.0 NE 13 19 7 10 1014.6 - 0.0
17/09:30pm 29.1 29.4 17.9 50 7.2 NE 13 20 7 11 1014.3 - 0.0
17/09:00pm 29.5 29.8 18.0 50 7.4 ENE 13 20 7 11 1014.1 1012.8 0.0
17/08:30pm 30.2 30.0 17.6 46 8.1 ENE 15 20 8 11 1013.8 - 0.0
17/08:00pm 30.9 30.8 17.9 45 8.4 ENE 15 19 8 10 1013.3 - 0.0
17/07:30pm 31.6 31.4 17.5 43 9.1 ENE 15 20 8 11 1013.0 - 0.0
17/07:00pm 32.5 32.1 17.2 40 9.8 ENE 15 20 8 11 1012.8 - 0.0
17/06:30pm 33.5 32.7 17.2 37 10.5 ENE 17 20 9 11 1012.5 - 0.0
17/06:00pm 34.3 32.4 16.6 34 11.3 ENE 22 28 12 15 1012.3 1011.1 0.0
17/05:30pm 34.2 33.9 17.4 36 10.9 ENE 15 20 8 11 1012.1 - 0.0
17/05:00pm 35.1 34.6 17.8 36 11.3 ENE 17 24 9 13 1011.9 - 0.0
17/04:30pm 35.0 34.6 17.2 34 11.5 ENE 15 28 8 15 1011.8 - 0.0
17/04:00pm 35.2 34.1 17.4 34 11.5 E 19 30 10 16 1012.0 - 0.0
17/03:30pm 34.8 34.7 17.9 36 11.0 ENE 15 20 8 11 1012.2 - 0.0
17/03:00pm 34.6 34.1 18.6 38 10.5 E 19 30 10 16 1012.6 1011.4 0.0
17/02:30pm 34.5 34.1 18.9 39 10.3 E 19 28 10 15 1012.9 - 0.0
17/02:00pm 33.7 33.5 18.6 40 9.9 E 17 37 9 20 1013.3 - 0.0
17/01:30pm 34.5 35.2 19.7 41 9.9 E 15 30 8 16 1013.9 - 0.0
17/01:00pm 33.3 33.1 17.5 39 10.2 ENE 15 26 8 14 1014.3 - 0.0
17/12:30pm 33.5 33.9 17.2 37 10.5 ENE 11 20 6 11 1014.8 - 0.0
17/12:00pm 32.8 32.3 17.0 38 10.1 NE 15 22 8 12 1015.3 1014.0 0.0
17/11:30am 32.8 32.5 17.4 39 9.9 E 15 28 8 15 1015.7 - 0.0
17/11:00am 31.4 32.4 18.7 46 8.3 NE 11 24 6 13 1016.0 - 0.0
17/10:30am 30.8 31.1 17.8 45 8.4 E 13 20 7 11 1016.4 - 0.0
17/10:00am 30.1 30.7 19.5 53 7.0 ENE 15 24 8 13 1016.5 - 0.0
17/09:30am 29.8 30.9 21.2 60 5.8 ENE 17 24 9 13 1016.7 - 0.0
17/09:00am 28.2 28.6 21.0 65 4.8 ENE 20 28 11 15 1016.9 1015.7 0.0
17/08:30am 27.3 28.2 20.9 68 4.3 ENE 17 22 9 12 1016.8 - 0.0
17/08:00am 26.8 28.7 22.0 75 3.2 ENE 15 24 8 13 1016.9 - 0.0
17/07:30am 26.4 28.2 22.5 79 2.6 E 17 26 9 14 1016.8 - 0.0
17/07:00am 25.0 26.4 22.5 86 1.7 E 19 24 10 13 1016.7 - 0.0
17/06:30am 23.9 26.8 22.5 92 0.9 E 11 13 6 7 1016.2 - 0.0
17/06:00am 22.8 25.3 22.5 98 0.2 E 13 15 7 8 1015.8 1014.6 0.0
17/05:30am 22.4 25.5 22.1 98 0.2 ESE 9 13 5 7 1015.4 - 0.0
17/05:00am 22.7 25.6 22.4 98 0.2 ESE 11 13 6 7 1014.9 - 0.0
17/04:30am 23.0 25.4 22.3 96 0.5 ESE 13 15 7 8 1014.4 - 0.0
17/04:00am 23.4 26.3 22.4 94 0.7 E 11 13 6 7 1014.3 - 0.0
17/03:30am 23.9 26.7 22.3 91 1.1 E 11 15 6 8 1014.2 - 0.0
17/03:00am 24.2 26.4 21.9 87 1.5 E 13 17 7 9 1014.2 1012.9 0.0
17/02:30am 24.9 26.6 21.6 82 2.2 ENE 15 20 8 11 1014.3 - 0.0
17/02:00am 25.2 26.5 21.7 81 2.3 ENE 17 24 9 13 1014.1 - 0.0
17/01:30am 25.5 27.7 21.8 80 2.5 ENE 13 20 7 11 1014.1 - 0.0
17/01:00am 25.8 27.6 21.2 76 3.1 NE 13 17 7 9 1014.1 - 0.0
17/12:30am 26.3 27.5 21.5 75 3.2 NE 17 24 9 13 1014.2 - 0.0
17/12:00am 26.6 28.3 22.4 78 2.8 ENE 17 24 9 13 1014.3 1013.0 0.0
 
Date/Time
EST
Temp
°C
App
Temp
°C
Dew
Point
°C
Rel
Hum
%
Delta-T
°C
Wind Press
QNH
hPa
Press
MSL
hPa
Rain since
9am
mm
Dir  Spd
km/h
Gust
km/h
Spd
kts
Gust
kts
16/11:30pm 27.0 28.4 22.6 77 3.0 NE 19 26 10 14 1014.2 - 0.0
16/11:00pm 27.4 28.4 22.8 76 3.1 NE 22 30 12 16 1014.3 - 0.0
16/10:30pm 27.8 28.2 22.5 73 3.6 NE 24 35 13 19 1014.2 - 0.0
16/10:00pm 28.3 28.4 22.5 71 4.0 NE 26 37 14 20 1013.9 - 0.0
16/09:30pm 28.5 28.4 22.3 69 4.2 ENE 26 39 14 21 1013.3 - 0.0
16/09:00pm 28.7 28.5 22.0 67 4.5 ENE 26 37 14 20 1013.1 1011.9 0.0

Other Formats:

Comma delimited format used in spreadsheet applications
http://www.bom.gov.au/fwo/IDQ60801/IDQ60801.94363.axf

JavaScript Object Notation format (JSON) in row-major order
http://www.bom.gov.au/fwo/IDQ60801/IDQ60801.94363.json